KP28

Medicine Lodge Airport

Medicine Lodge, Kansas, USA
METAR KP28 161256Z AUTO 35005KT M03/M08 A3021 RMK AO1 SLP242 T10281078
Observed Flight Rules
Dec-16 @ 12:56 UTC (38 minutes ago)
Wind
350° at 5 knots
Temperatures Readings
Current -3°C / 27°F
Dewpoint -8°C / 18°F
Humidity 69%
Altimeter 30.21" Hg
Pressure 1024.2 hPa
Elevation 469
METAR KP28 161256Z AUTO 35005KT M03/M08 A3021 RMK AO1 SLP242 T10281078
Observed Flight Rules
Dec-16 @ 12:56 UTC
(38 minutes ago)
Wind
350° at 5 knots
Temperature Dewpoint
-3°C / 27°F -8°C / 18°F
Humidity Altimeter Pressure
69% 30.21" Hg 1024.2 hPa